createdAt,value
2022-10-18T00:02:03.167Z,100741.85
2022-10-18T00:04:29.725Z,100747.27
2022-10-18T00:06:55.986Z,100745.72
2022-10-18T00:09:22.543Z,100741.91
2022-10-18T00:11:48.903Z,100738.70
2022-10-18T00:14:15.269Z,100734.77
2022-10-18T00:16:41.497Z,100738.64
2022-10-18T00:19:08.014Z,100746.36
2022-10-18T00:21:34.461Z,100750.11
2022-10-18T00:24:00.718Z,100747.70
2022-10-18T00:26:28.576Z,100744.23
2022-10-18T00:29:01.505Z,100739.49
2022-10-18T00:31:33.599Z,100742.04
2022-10-18T00:34:02.172Z,100736.44
2022-10-18T00:36:30.933Z,100735.96
2022-10-18T00:38:57.709Z,100742.23
2022-10-18T00:41:27.825Z,100741.46
2022-10-18T00:43:58.800Z,100742.29
2022-10-18T00:46:28.712Z,100746.06
2022-10-18T00:49:05.678Z,100750.09
2022-10-18T00:51:43.583Z,100748.98
2022-10-18T00:54:11.630Z,100747.89
2022-10-18T00:56:38.301Z,100749.02
2022-10-18T00:59:06.434Z,100749.05
2022-10-18T01:01:32.707Z,100748.04
2022-10-18T01:03:59.107Z,100743.59
2022-10-18T01:06:27.505Z,100745.50
2022-10-18T01:09:11.918Z,100743.98
2022-10-18T01:11:38.089Z,100742.89
2022-10-18T01:14:07.329Z,100739.27
2022-10-18T01:16:41.474Z,100736.98
2022-10-18T01:19:27.770Z,100736.63
2022-10-18T01:22:01.450Z,100736.29
2022-10-18T01:24:45.278Z,100731.73
2022-10-18T01:27:43.624Z,100731.83
2022-10-18T01:30:15.942Z,100729.97
2022-10-18T01:32:47.959Z,100730.27
2022-10-18T01:35:20.326Z,100734.88
2022-10-18T01:37:50.239Z,100731.48
2022-10-18T01:40:20.053Z,100733.73
2022-10-18T01:42:48.616Z,100731.93
2022-10-18T01:45:16.376Z,100732.41
2022-10-18T01:47:45.575Z,100727.73
2022-10-18T01:50:12.837Z,100725.55
2022-10-18T01:52:55.118Z,100719.56
2022-10-18T01:55:27.002Z,100721.89
2022-10-18T01:58:25.170Z,100721.77
2022-10-18T02:01:03.021Z,100727.07
2022-10-18T02:03:29.275Z,100728.75
2022-10-18T02:06:06.090Z,100729.55
2022-10-18T02:08:43.300Z,100729.91
2022-10-18T02:11:12.358Z,100735.36
2022-10-18T02:14:01.846Z,100727.31
2022-10-18T02:16:38.403Z,100726.36
2022-10-18T02:21:54.212Z,100732.30
2022-10-18T02:24:22.994Z,100729.90
2022-10-18T02:26:49.550Z,100732.34
2022-10-18T02:29:15.930Z,100730.33
2022-10-18T02:31:48.948Z,100728.86
2022-10-18T02:34:18.317Z,100728.36
2022-10-18T02:36:49.463Z,100727.84
2022-10-18T02:39:20.426Z,100729.39
2022-10-18T02:41:46.780Z,100732.02
2022-10-18T02:44:13.041Z,100732.70
2022-10-18T02:46:39.857Z,100734.02
2022-10-18T02:49:06.259Z,100737.13
2022-10-18T02:51:33.015Z,100733.79
2022-10-18T02:53:59.300Z,100734.14
2022-10-18T02:56:25.552Z,100732.60
2022-10-18T02:58:51.794Z,100735.92
2022-10-18T03:01:18.049Z,100736.96
2022-10-18T03:03:44.450Z,100738.95
2022-10-18T03:06:10.687Z,100736.84
2022-10-18T03:08:37.398Z,100736.52
2022-10-18T03:11:03.757Z,100734.54
2022-10-18T03:15:56.513Z,100732.80
2022-10-18T03:18:22.868Z,100732.10
2022-10-18T03:20:49.088Z,100737.65
2022-10-18T03:23:15.296Z,100732.59
2022-10-18T03:25:44.213Z,100733.58
2022-10-18T03:28:12.669Z,100732.99
2022-10-18T03:30:38.924Z,100738.30
2022-10-18T03:33:06.167Z,100743.20
2022-10-18T03:35:32.421Z,100749.13
2022-10-18T03:37:58.670Z,100744.69
2022-10-18T03:40:25.053Z,100750.77
2022-10-18T03:42:51.318Z,100749.75
2022-10-18T03:45:17.606Z,100747.11
2022-10-18T03:47:43.836Z,100751.77
2022-10-18T03:50:10.195Z,100753.80
2022-10-18T03:52:36.476Z,100754.09
2022-10-18T03:55:03.243Z,100759.88
2022-10-18T03:57:29.975Z,100766.23
2022-10-18T03:59:56.193Z,100759.41
2022-10-18T04:02:22.550Z,100767.86
2022-10-18T04:04:48.823Z,100769.05
2022-10-18T04:07:15.402Z,100772.52
2022-10-18T04:09:41.669Z,100771.83
2022-10-18T04:12:07.884Z,100767.16
2022-10-18T04:14:34.113Z,100769.71
2022-10-18T04:17:00.352Z,100769.09
2022-10-18T04:19:27.096Z,100770.21
2022-10-18T04:21:53.634Z,100769.34
2022-10-18T04:24:19.907Z,100766.07
2022-10-18T04:26:46.245Z,100767.61
2022-10-18T04:29:12.626Z,100766.62
2022-10-18T04:31:39.102Z,100775.61
2022-10-18T04:34:05.363Z,100777.10
2022-10-18T04:36:31.666Z,100777.13
2022-10-18T04:38:57.938Z,100774.40
2022-10-18T04:41:24.219Z,100776.87
2022-10-18T04:43:50.454Z,100774.70
2022-10-18T04:46:16.770Z,100774.70
2022-10-18T04:48:43.033Z,100773.45
2022-10-18T04:51:09.235Z,100775.19
2022-10-18T04:53:35.527Z,100778.15
2022-10-18T04:56:01.810Z,100780.09
2022-10-18T04:58:28.092Z,100781.23
2022-10-18T05:00:54.362Z,100784.77
2022-10-18T05:03:20.710Z,100784.29
2022-10-18T05:06:03.153Z,100783.49
2022-10-18T05:08:34.667Z,100781.52
2022-10-18T05:11:02.560Z,100783.45
2022-10-18T05:13:29.292Z,100787.88
2022-10-18T05:15:55.612Z,100783.34
2022-10-18T05:18:21.886Z,100778.30
2022-10-18T05:20:48.097Z,100779.78
2022-10-18T05:23:14.318Z,100774.36
2022-10-18T05:25:42.030Z,100779.59
2022-10-18T05:28:34.722Z,100774.48
2022-10-18T05:30:55.479Z,100777.17
2022-10-18T05:33:21.832Z,100773.06
2022-10-18T05:35:48.155Z,100773.59
2022-10-18T05:38:14.362Z,100768.98
2022-10-18T05:40:40.619Z,100771.63
2022-10-18T05:43:06.848Z,100778.23
2022-10-18T05:45:33.112Z,100785.88
2022-10-18T05:47:59.337Z,100785.55
2022-10-18T05:50:25.575Z,100784.32
2022-10-18T05:53:02.672Z,100782.73
2022-10-18T05:55:38.945Z,100778.46
2022-10-18T05:58:05.260Z,100782.05
2022-10-18T06:00:31.560Z,100787.40
2022-10-18T06:03:00.241Z,100793.31
2022-10-18T06:05:27.287Z,100797.68
2022-10-18T06:07:53.736Z,100805.78
2022-10-18T06:10:20.021Z,100809.58
2022-10-18T06:12:46.362Z,100814.60
2022-10-18T06:15:12.831Z,100817.95
2022-10-18T06:17:43.944Z,100818.92
2022-10-18T06:20:48.218Z,100820.51
2022-10-18T06:23:48.845Z,100826.91
2022-10-18T06:26:19.389Z,100832.86
2022-10-18T06:28:50.805Z,100833.83
2022-10-18T06:31:20.737Z,100838.91
2022-10-18T06:33:47.486Z,100844.63
2022-10-18T06:36:17.154Z,100836.52
2022-10-18T06:38:43.629Z,100829.86
2022-10-18T06:41:10.202Z,100822.52
2022-10-18T06:43:36.470Z,100816.78
2022-10-18T06:46:06.208Z,100820.15
2022-10-18T06:48:35.646Z,100819.34
2022-10-18T06:51:04.769Z,100818.84
2022-10-18T06:53:33.260Z,100826.38
2022-10-18T06:56:06.001Z,100838.11
2022-10-18T06:58:34.293Z,100828.97
2022-10-18T07:01:17.267Z,100826.38
2022-10-18T07:03:46.348Z,100831.52
2022-10-18T07:06:15.001Z,100831.92
2022-10-18T07:08:42.113Z,100834.17
2022-10-18T07:11:14.682Z,100844.23
2022-10-18T07:13:41.361Z,100841.52
2022-10-18T07:16:14.099Z,100839.59
2022-10-18T07:18:47.535Z,100842.02
2022-10-18T07:21:15.206Z,100844.98
2022-10-18T07:23:43.478Z,100840.89
2022-10-18T07:26:17.341Z,100842.15
2022-10-18T07:28:46.679Z,100838.95
2022-10-18T07:31:13.140Z,100840.74
2022-10-18T07:33:42.228Z,100846.33
2022-10-18T07:36:10.875Z,100843.69
2022-10-18T07:38:37.605Z,100849.13
2022-10-18T07:41:06.115Z,100853.64
2022-10-18T07:43:33.595Z,100852.75
2022-10-18T07:46:02.012Z,100848.88
2022-10-18T07:48:28.502Z,100846.80
2022-10-18T07:50:58.715Z,100852.18
2022-10-18T07:53:24.936Z,100851.08
2022-10-18T07:55:52.401Z,100857.89
2022-10-18T07:58:18.654Z,100856.84
2022-10-18T08:00:44.873Z,100845.55
2022-10-18T08:03:11.189Z,100843.07
2022-10-18T08:05:37.425Z,100834.60
2022-10-18T08:08:07.203Z,100830.89
2022-10-18T08:10:35.496Z,100835.23
2022-10-18T08:13:01.773Z,100836.08
2022-10-18T08:15:28.026Z,100832.39
2022-10-18T08:17:54.251Z,100826.22
2022-10-18T08:20:30.351Z,100825.70
2022-10-18T08:23:00.072Z,100830.38
2022-10-18T08:25:28.292Z,100834.92
2022-10-18T08:27:54.548Z,100837.08
2022-10-18T08:30:22.627Z,100837.90
2022-10-18T08:32:48.869Z,100844.69
2022-10-18T08:35:15.241Z,100842.94
2022-10-18T08:37:41.442Z,100839.55
2022-10-18T08:40:12.429Z,100846.08
2022-10-18T08:42:57.216Z,100842.45
2022-10-18T08:45:40.894Z,100840.35
2022-10-18T08:48:18.232Z,100837.52
2022-10-18T08:50:46.045Z,100832.70
2022-10-18T08:53:36.301Z,100822.22
2022-10-18T08:56:13.939Z,100821.98
2022-10-18T08:58:44.906Z,100820.67
2022-10-18T09:01:27.096Z,100820.98
2022-10-18T09:04:06.553Z,100823.91
2022-10-18T09:06:51.583Z,100822.84
2022-10-18T09:09:33.774Z,100823.94
2022-10-18T09:12:15.960Z,100823.28
2022-10-18T09:15:04.194Z,100811.52
2022-10-18T09:18:07.780Z,100803.62
2022-10-18T09:21:04.590Z,100798.42
2022-10-18T09:23:49.195Z,100791.09
2022-10-18T09:26:19.994Z,100782.23
2022-10-18T09:31:44.298Z,100783.71
2022-10-18T09:34:24.635Z,100786.10
2022-10-18T09:36:51.811Z,100789.70
2022-10-18T09:39:22.445Z,100791.92
2022-10-18T09:42:28.172Z,100792.55
2022-10-18T09:45:05.572Z,100788.52
2022-10-18T09:47:38.692Z,100783.16
2022-10-18T09:50:23.542Z,100784.86
2022-10-18T09:53:12.785Z,100782.92
2022-10-18T09:55:54.731Z,100779.48
2022-10-18T09:58:24.434Z,100769.55
2022-10-18T10:00:52.637Z,100762.40
2022-10-18T10:03:19.219Z,100758.19
2022-10-18T10:05:46.239Z,100750.84
2022-10-18T10:08:12.621Z,100744.23
2022-10-18T10:10:45.118Z,100739.90
2022-10-18T10:13:23.711Z,100738.27
2022-10-18T10:15:59.856Z,100740.34
2022-10-18T10:18:32.420Z,100746.43
2022-10-18T10:21:02.388Z,100753.87
2022-10-18T10:23:33.088Z,100754.48
2022-10-18T10:26:22.180Z,100751.30
2022-10-18T10:28:49.220Z,100751.29
2022-10-18T10:31:32.645Z,100759.27
2022-10-18T10:34:13.988Z,100757.27
2022-10-18T10:36:50.695Z,100756.82
2022-10-18T10:39:19.277Z,100764.48
2022-10-18T10:41:54.227Z,100760.16
2022-10-18T10:44:28.413Z,100756.84
2022-10-18T10:46:55.156Z,100759.65
2022-10-18T10:49:39.680Z,100757.41
2022-10-18T10:52:26.944Z,100754.76
2022-10-18T10:55:05.782Z,100753.45
2022-10-18T10:57:46.250Z,100754.03
2022-10-18T11:00:44.481Z,100754.79
2022-10-18T11:03:27.879Z,100759.95
2022-10-18T11:05:57.035Z,100757.59
2022-10-18T11:08:32.522Z,100757.83
2022-10-18T11:11:02.223Z,100748.04
2022-10-18T11:13:41.519Z,100743.00
2022-10-18T11:16:38.746Z,100742.77
2022-10-18T11:19:25.147Z,100737.52
2022-10-18T11:21:55.989Z,100726.89
2022-10-18T11:24:23.333Z,100713.02
2022-10-18T11:27:05.632Z,100722.45
2022-10-18T11:29:38.141Z,100723.28
2022-10-18T11:32:04.377Z,100722.75
2022-10-18T11:34:45.935Z,100721.55
2022-10-18T11:37:44.698Z,100716.30
2022-10-18T11:40:40.878Z,100714.71
2022-10-18T11:43:07.086Z,100708.98
2022-10-18T11:45:59.827Z,100708.67
2022-10-18T11:48:32.040Z,100707.27
2022-10-18T11:51:26.491Z,100710.78
2022-10-18T11:54:29.166Z,100708.98
2022-10-18T11:57:17.600Z,100700.51
2022-10-18T12:00:08.146Z,100692.20
2022-10-18T12:03:02.824Z,100687.31
2022-10-18T12:05:29.559Z,100691.83
2022-10-18T12:08:01.957Z,100687.75
2022-10-18T12:10:44.482Z,100677.39
2022-10-18T12:13:36.842Z,100675.79
2022-10-18T12:16:06.145Z,100665.71
2022-10-18T12:18:35.277Z,100665.17
2022-10-18T12:21:01.944Z,100673.81
2022-10-18T12:24:00.189Z,100669.09
2022-10-18T12:26:28.470Z,100656.90
2022-10-18T12:28:57.614Z,100650.88
2022-10-18T12:31:33.045Z,100651.04
2022-10-18T12:34:10.218Z,100659.27
2022-10-18T12:36:52.545Z,100651.23
2022-10-18T12:39:37.494Z,100643.98
2022-10-18T12:42:27.758Z,100642.02
2022-10-18T12:45:25.635Z,100640.21
2022-10-18T12:47:52.787Z,100648.33
2022-10-18T12:50:30.369Z,100647.30
2022-10-18T12:53:08.794Z,100639.88
2022-10-18T12:55:40.883Z,100626.52
2022-10-18T12:58:13.253Z,100625.45
2022-10-18T13:00:42.458Z,100627.56
2022-10-18T13:03:11.526Z,100628.41
2022-10-18T13:05:57.304Z,100629.80
2022-10-18T13:08:26.274Z,100623.73
2022-10-18T13:11:11.283Z,100620.89
2022-10-18T13:13:57.402Z,100613.93
2022-10-18T13:16:30.527Z,100615.91
2022-10-18T13:19:15.861Z,100616.11
2022-10-18T13:22:05.224Z,100618.12
2022-10-18T13:24:45.004Z,100626.66
2022-10-18T13:27:36.340Z,100627.49
2022-10-18T13:30:17.908Z,100623.31
2022-10-18T13:33:00.145Z,100617.66
2022-10-18T13:35:45.148Z,100609.35
2022-10-18T13:38:46.293Z,100602.31
2022-10-18T13:41:21.671Z,100596.78
2022-10-18T13:44:06.980Z,100597.02
2022-10-18T13:46:33.215Z,100588.63
2022-10-18T13:49:30.289Z,100586.64
2022-10-18T13:52:19.739Z,100591.80
2022-10-18T13:55:15.956Z,100595.40
2022-10-18T13:57:58.169Z,100594.83
2022-10-18T14:00:49.061Z,100594.80
2022-10-18T14:03:26.956Z,100598.16
2022-10-18T14:06:33.832Z,100593.54
2022-10-18T14:09:40.204Z,100589.64
2022-10-18T14:12:33.784Z,100589.20
2022-10-18T14:15:23.176Z,100584.23
2022-10-18T14:18:21.395Z,100579.31
2022-10-18T14:21:12.795Z,100575.65
2022-10-18T14:23:43.940Z,100576.73
2022-10-18T14:26:15.961Z,100584.37
2022-10-18T14:29:00.256Z,100590.94
2022-10-18T14:31:27.459Z,100593.83
2022-10-18T14:33:57.878Z,100591.59
2022-10-18T14:36:26.393Z,100592.61
2022-10-18T14:39:01.796Z,100589.90
2022-10-18T14:41:39.574Z,100584.36
2022-10-18T14:44:26.750Z,100584.94
2022-10-18T14:47:24.938Z,100577.73
2022-10-18T14:49:57.032Z,100572.28
2022-10-18T14:52:29.475Z,100574.78
2022-10-18T14:54:58.897Z,100576.25
2022-10-18T14:57:32.585Z,100577.17
2022-10-18T15:00:06.694Z,100579.69
2022-10-18T15:02:36.703Z,100581.02
2022-10-18T15:05:19.856Z,100581.55
2022-10-18T15:07:47.543Z,100574.64
2022-10-18T15:10:20.720Z,100566.55
2022-10-18T15:13:08.735Z,100549.48
2022-10-18T15:15:35.411Z,100542.46
2022-10-18T15:18:04.371Z,100550.24
2022-10-18T15:20:34.395Z,100555.23
2022-10-18T15:23:25.304Z,100561.70
2022-10-18T15:26:01.638Z,100565.36
2022-10-18T15:28:38.656Z,100564.46
2022-10-18T15:31:06.099Z,100562.90
2022-10-18T15:33:33.979Z,100549.63
2022-10-18T15:36:22.293Z,100540.44
2022-10-18T15:38:50.056Z,100518.92
2022-10-18T15:41:37.736Z,100505.75
2022-10-18T15:44:20.037Z,100515.39
2022-10-18T15:46:47.225Z,100529.80
2022-10-18T15:49:45.506Z,100530.78
2022-10-18T15:52:43.701Z,100530.95
2022-10-18T15:55:29.020Z,100528.67
2022-10-18T15:58:11.236Z,100529.41
2022-10-18T16:00:37.505Z,100528.31
2022-10-18T16:03:03.888Z,100530.20
2022-10-18T16:05:30.114Z,100536.52
2022-10-18T16:07:56.333Z,100552.45
2022-10-18T16:10:22.599Z,100560.17
2022-10-18T16:12:48.865Z,100560.11
2022-10-18T16:15:15.193Z,100563.39
2022-10-18T16:21:29.183Z,100556.04
2022-10-18T16:23:56.007Z,100549.09
2022-10-18T16:26:41.748Z,100546.98
2022-10-18T16:29:31.278Z,100541.58
2022-10-18T16:31:58.062Z,100556.36
2022-10-18T16:34:26.523Z,100550.98
2022-10-18T16:36:52.870Z,100532.05
2022-10-18T16:39:21.012Z,100539.05
2022-10-18T16:41:47.629Z,100545.11
2022-10-18T16:44:16.019Z,100547.44
2022-10-18T16:46:42.317Z,100544.33
2022-10-18T16:49:18.043Z,100543.86
2022-10-18T16:51:44.354Z,100553.39
2022-10-18T16:54:10.670Z,100564.99
2022-10-18T16:56:38.490Z,100560.27
2022-10-18T16:59:05.031Z,100561.27
2022-10-18T17:01:31.508Z,100556.59
2022-10-18T17:03:57.861Z,100567.27
2022-10-18T17:06:27.098Z,100567.23
2022-10-18T17:08:55.171Z,100567.37
2022-10-18T17:11:23.659Z,100568.44
2022-10-18T17:13:50.596Z,100565.86
2022-10-18T17:18:55.762Z,100571.70
2022-10-18T17:21:23.342Z,100577.76
2022-10-18T17:23:49.943Z,100591.38
2022-10-18T17:26:28.909Z,100594.36
2022-10-18T17:28:59.590Z,100592.31
2022-10-18T17:31:27.404Z,100590.52
2022-10-18T17:33:55.591Z,100589.88
2022-10-18T17:36:21.906Z,100581.88
2022-10-18T17:38:55.955Z,100580.20
2022-10-18T17:41:24.583Z,100576.93
2022-10-18T17:43:54.220Z,100572.16
2022-10-18T17:46:28.449Z,100573.05
2022-10-18T17:48:54.944Z,100572.73
2022-10-18T17:51:22.269Z,100573.36
2022-10-18T17:53:54.784Z,100572.58
2022-10-18T17:56:22.671Z,100565.42
2022-10-18T17:58:52.154Z,100562.27
2022-10-18T18:01:23.602Z,100564.54
2022-10-18T18:03:56.444Z,100567.94
2022-10-18T18:06:30.113Z,100568.34
2022-10-18T18:08:58.293Z,100571.14
2022-10-18T18:11:38.846Z,100577.86
2022-10-18T18:14:12.199Z,100571.09
2022-10-18T18:16:45.136Z,100581.23
2022-10-18T18:19:27.323Z,100581.13
2022-10-18T18:22:15.055Z,100576.70
2022-10-18T18:24:42.308Z,100581.33
2022-10-18T18:27:09.749Z,100585.36
2022-10-18T18:29:48.651Z,100584.81
2022-10-18T18:32:21.057Z,100593.42
2022-10-18T18:35:18.145Z,100591.95
2022-10-18T18:37:51.442Z,100585.63
2022-10-18T18:40:17.834Z,100584.34
2022-10-18T18:42:56.762Z,100588.77
2022-10-18T18:45:32.089Z,100586.34
2022-10-18T18:47:58.437Z,100582.10
2022-10-18T18:50:24.883Z,100585.13
2022-10-18T18:52:51.156Z,100582.44
2022-10-18T18:55:17.430Z,100580.35
2022-10-18T18:57:44.061Z,100579.51
2022-10-18T19:00:14.310Z,100578.54
2022-10-18T19:02:40.724Z,100579.70
2022-10-18T19:05:07.065Z,100576.59
2022-10-18T19:07:36.107Z,100576.45
2022-10-18T19:10:04.504Z,100574.41
2022-10-18T19:12:30.909Z,100573.98
2022-10-18T19:14:59.289Z,100573.19
2022-10-18T19:17:26.467Z,100572.02
2022-10-18T19:19:53.427Z,100570.02
2022-10-18T19:22:20.053Z,100571.50
2022-10-18T19:24:46.456Z,100577.59
2022-10-18T19:27:23.790Z,100576.92
2022-10-18T19:29:50.178Z,100575.42
2022-10-18T19:32:18.253Z,100580.28
2022-10-18T19:34:47.842Z,100583.71
2022-10-18T19:37:15.055Z,100579.70
2022-10-18T19:39:42.254Z,100576.77
2022-10-18T19:42:12.620Z,100576.55
2022-10-18T19:44:41.105Z,100578.02
2022-10-18T19:47:11.238Z,100582.72
2022-10-18T19:49:39.213Z,100580.45
2022-10-18T19:52:05.674Z,100578.41
2022-10-18T19:54:32.824Z,100579.19
2022-10-18T19:56:59.294Z,100578.02
2022-10-18T19:59:29.009Z,100580.29
2022-10-18T20:01:56.582Z,100581.87
2022-10-18T20:04:55.141Z,100578.77
2022-10-18T20:10:38.939Z,100582.23
2022-10-18T20:13:15.719Z,100584.77
2022-10-18T20:15:50.451Z,100587.98
2022-10-18T20:18:23.880Z,100585.25
2022-10-18T20:21:00.349Z,100583.48
2022-10-18T20:23:47.136Z,100585.98
2022-10-18T20:26:27.267Z,100585.42
2022-10-18T20:29:08.977Z,100585.35
2022-10-18T20:32:01.873Z,100583.38
2022-10-18T20:34:31.116Z,100580.35
2022-10-18T20:37:04.952Z,100587.41
2022-10-18T20:39:39.649Z,100584.05
2022-10-18T20:42:08.216Z,100585.83
2022-10-18T20:44:36.938Z,100586.03
2022-10-18T20:47:12.069Z,100585.19
2022-10-18T20:49:40.703Z,100582.85
2022-10-18T20:52:07.340Z,100586.02
2022-10-18T20:54:35.802Z,100581.61
2022-10-18T20:57:03.511Z,100574.35
2022-10-18T20:59:30.237Z,100573.36
2022-10-18T21:01:59.694Z,100570.01
2022-10-18T21:04:26.506Z,100573.20
2022-10-18T21:06:53.989Z,100572.15
2022-10-18T21:09:23.845Z,100572.89
2022-10-18T21:11:57.321Z,100579.88
2022-10-18T21:14:24.066Z,100577.06
2022-10-18T21:16:51.968Z,100573.58
2022-10-18T21:19:25.864Z,100574.73
2022-10-18T21:22:00.312Z,100568.81
2022-10-18T21:24:32.669Z,100569.67
2022-10-18T21:27:00.461Z,100563.66
2022-10-18T21:29:27.020Z,100565.28
2022-10-18T21:32:00.331Z,100561.00
2022-10-18T21:34:46.106Z,100560.00
2022-10-18T21:37:13.267Z,100558.55
2022-10-18T21:42:36.992Z,100557.02
2022-10-18T21:45:11.077Z,100559.28
2022-10-18T21:47:45.250Z,100557.70
2022-10-18T21:50:26.823Z,100559.72
2022-10-18T21:53:04.351Z,100559.67
2022-10-18T21:55:36.874Z,100562.44
2022-10-18T21:58:06.120Z,100563.42
2022-10-18T22:00:43.315Z,100561.67
2022-10-18T22:04:13.460Z,100555.15
2022-10-18T22:09:59.955Z,100546.27
2022-10-18T22:12:46.397Z,100542.43
2022-10-18T22:15:14.673Z,100532.85
2022-10-18T22:17:45.901Z,100525.41
2022-10-18T22:20:18.371Z,100527.81
2022-10-18T22:22:46.973Z,100524.65
2022-10-18T22:25:21.333Z,100520.54
2022-10-18T22:27:49.591Z,100517.24
2022-10-18T22:30:16.750Z,100513.63
2022-10-18T22:32:43.408Z,100510.34
2022-10-18T22:35:15.118Z,100501.52
2022-10-18T22:37:48.126Z,100501.19
2022-10-18T22:40:15.439Z,100500.50
2022-10-18T22:42:41.933Z,100499.03
2022-10-18T22:45:22.204Z,100497.35
2022-10-18T22:47:54.786Z,100499.07
2022-10-18T22:50:24.692Z,100495.69
2022-10-18T22:52:58.790Z,100494.41
2022-10-18T22:55:32.108Z,100493.92
2022-10-18T22:58:10.220Z,100496.08
2022-10-18T23:00:43.005Z,100487.20
2022-10-18T23:03:11.723Z,100489.44
2022-10-18T23:05:46.938Z,100489.20
2022-10-18T23:08:26.459Z,100490.50
2022-10-18T23:10:57.911Z,100484.83
2022-10-18T23:13:28.371Z,100488.98
2022-10-18T23:16:04.618Z,100493.64
2022-10-18T23:18:35.895Z,100491.06
2022-10-18T23:21:12.635Z,100490.14
2022-10-18T23:23:41.935Z,100481.73
2022-10-18T23:26:19.509Z,100481.14
2022-10-18T23:28:48.826Z,100479.80
2022-10-18T23:31:23.054Z,100476.65
2022-10-18T23:33:56.317Z,100478.05
2022-10-18T23:36:29.226Z,100474.02
2022-10-18T23:38:58.088Z,100475.06
2022-10-18T23:41:29.171Z,100467.55
2022-10-18T23:44:22.446Z,100466.83
2022-10-18T23:47:01.798Z,100464.09
2022-10-18T23:49:31.482Z,100462.52
2022-10-18T23:52:05.193Z,100461.45
2022-10-18T23:54:38.225Z,100456.48
2022-10-18T23:57:10.563Z,100458.44
2022-10-18T23:59:37.007Z,100453.23
